sensor_id;sensor_type;location;lat;lon;timestamp;pressure;altitude;pressure_sealevel;temperature;humidity
7754;BME280;3921;42.266;23.122;2023-02-19T00:21:09;95563.66;;;1.98;63.64
7754;BME280;3921;42.266;23.122;2023-02-19T00:23:51;95577.81;;;2.32;63.66
7754;BME280;3921;42.266;23.122;2023-02-19T00:26:34;95540.41;;;1.94;64.52
7754;BME280;3921;42.266;23.122;2023-02-19T00:29:08;95967.50;;;4.75;64.08
7754;BME280;3921;42.266;23.122;2023-02-19T00:31:49;95478.28;;;1.56;64.02
7754;BME280;3921;42.266;23.122;2023-02-19T00:34:27;95572.66;;;2.24;64.39
7754;BME280;3921;42.266;23.122;2023-02-19T00:37:32;95542.38;;;2.04;64.02
7754;BME280;3921;42.266;23.122;2023-02-19T00:40:03;95575.75;;;2.17;64.48
7754;BME280;3921;42.266;23.122;2023-02-19T00:42:52;95957.22;;;4.62;65.09
7754;BME280;3921;42.266;23.122;2023-02-19T00:45:47;95854.81;;;4.12;64.71
7754;BME280;3921;42.266;23.122;2023-02-19T00:48:40;95566.91;;;2.25;64.01
7754;BME280;3921;42.266;23.122;2023-02-19T00:51:09;95544.38;;;1.88;64.35
7754;BME280;3921;42.266;23.122;2023-02-19T01:07:21;95951.22;;;4.22;64.66
7754;BME280;3921;42.266;23.122;2023-02-19T01:09:53;95543.69;;;1.36;65.93
7754;BME280;3921;42.266;23.122;2023-02-19T01:33:21;95684.13;;;2.50;68.17
7754;BME280;3921;42.266;23.122;2023-02-19T01:35:52;95505.06;;;1.14;68.25
7754;BME280;3921;42.266;23.122;2023-02-19T02:18:08;95943.78;;;3.90;66.97
7754;BME280;3921;42.266;23.122;2023-02-19T02:21:13;95507.28;;;1.05;66.41
7754;BME280;3921;42.266;23.122;2023-02-19T02:27:24;95729.06;;;2.05;67.57
7754;BME280;3921;42.266;23.122;2023-02-19T02:30:11;95561.25;;;1.17;67.31
7754;BME280;3921;42.266;23.122;2023-02-19T02:33:05;95839.22;;;2.94;67.47
7754;BME280;3921;42.266;23.122;2023-02-19T02:35:52;95530.63;;;0.86;67.42
7754;BME280;3921;42.266;23.122;2023-02-19T02:39:02;95535.03;;;0.96;67.41
7754;BME280;3921;42.266;23.122;2023-02-19T02:47:03;95512.03;;;1.26;66.82
7754;BME280;3921;42.266;23.122;2023-02-19T02:56:31;95554.16;;;1.27;67.51
7754;BME280;3921;42.266;23.122;2023-02-19T02:59:17;95516.19;;;1.00;66.64
7754;BME280;3921;42.266;23.122;2023-02-19T03:05:06;95545.09;;;1.01;67.08
7754;BME280;3921;42.266;23.122;2023-02-19T03:08:01;95805.47;;;2.71;67.65
7754;BME280;3921;42.266;23.122;2023-02-19T03:10:40;95967.88;;;3.63;67.30
7754;BME280;3921;42.266;23.122;2023-02-19T03:13:17;95520.94;;;0.68;67.38
7754;BME280;3921;42.266;23.122;2023-02-19T03:16:07;95519.72;;;0.56;68.16
7754;BME280;3921;42.266;23.122;2023-02-19T03:18:55;95522.53;;;0.66;67.57
7754;BME280;3921;42.266;23.122;2023-02-19T03:21:57;95508.66;;;0.46;69.04
7754;BME280;3921;42.266;23.122;2023-02-19T03:24:29;95562.34;;;0.48;69.44
7754;BME280;3921;42.266;23.122;2023-02-19T03:27:16;95515.13;;;0.41;68.92
7754;BME280;3921;42.266;23.122;2023-02-19T03:29:47;95573.47;;;0.61;68.64
7754;BME280;3921;42.266;23.122;2023-02-19T03:32:19;95554.03;;;0.46;69.21
7754;BME280;3921;42.266;23.122;2023-02-19T03:34:54;95491.84;;;0.10;68.52
7754;BME280;3921;42.266;23.122;2023-02-19T03:37:28;95473.06;;;0.15;68.90
7754;BME280;3921;42.266;23.122;2023-02-19T03:45:32;95561.09;;;0.61;68.24
7754;BME280;3921;42.266;23.122;2023-02-19T03:48:30;95994.09;;;3.26;68.48
7754;BME280;3921;42.266;23.122;2023-02-19T03:51:36;95534.75;;;0.62;67.32
7754;BME280;3921;42.266;23.122;2023-02-19T04:12:54;96125.00;;;4.10;68.85
7754;BME280;3921;42.266;23.122;2023-02-19T04:46:31;95817.13;;;2.19;67.02
7754;BME280;3921;42.266;23.122;2023-02-19T04:49:06;96165.41;;;4.31;67.29
7754;BME280;3921;42.266;23.122;2023-02-19T04:55:26;95572.50;;;0.82;66.80
7754;BME280;3921;42.266;23.122;2023-02-19T04:58:13;95827.97;;;2.50;67.21
7754;BME280;3921;42.266;23.122;2023-02-19T05:01:04;95606.34;;;1.08;67.17
7754;BME280;3921;42.266;23.122;2023-02-19T05:03:48;95936.28;;;3.03;67.36
7754;BME280;3921;42.266;23.122;2023-02-19T05:06:24;95598.16;;;0.85;67.36
7754;BME280;3921;42.266;23.122;2023-02-19T05:57:17;96193.66;;;3.52;70.16
7754;BME280;3921;42.266;23.122;2023-02-19T18:49:22;95493.50;;;11.83;43.76
7754;BME280;3921;42.266;23.122;2023-02-19T18:52:11;95742.16;;;13.33;43.94
